Kybartai, Lithuania

11:40 AM EET on December 09, 2016 (GMT +0200)
Kaunas International | | Change Station

Elev 256 ft 54.96 °N, 24.08 °E | Updated 20 minutes ago

Overcast
Overcast
45 °F
Feels Like 37 °F
N
17
Wind Variable Wind from West

Today
High -- | Low -- °F
--% Chance of Precip.
Yesterday
High -- | Low -- °F
Precip. -- in
Pressure 29.77 in
Visibility 6.2 miles
Clouds Overcast 800 ft
Windchill 37 °F
Dew Point 41 °F
Humidity 87%
Rainfall 0.00 in
Snow Depth Not available.
8:39 AM 4:03 PM
Waxing Gibbous, 72% visible
METAR EYKA 090920Z 26015KT 9999 OVC008 07/05 Q1008 R08/290095
Pressure 29.77 in
Visibility 6.2 miles
Clouds Overcast 800 ft
Windchill 37 °F
Dew Point 41 °F
Humidity 87%
Rainfall 0.00 in
Snow Depth Not available.
8:39 AM 4:03 PM
Waxing Gibbous, 72% visible
METAR EYKA 090920Z 26015KT 9999 OVC008 07/05 Q1008 R08/290095

10-Day Weather Forecast

×

Almanac

Astronomy

Dec. 09, 2016 Rise Set
Actual Time
Civil Twilight
Nautical Twilight
Astronomical Twilight
Moon
Length of Visible Light
Length of Day
Tomorrow will be .
, % of the Moon is Illuminated

Today's Extremes

Country Highs Country Lows

Community

WunderPhotos

Upload Photos

1,956,371 photos uploaded!

WunderBlog® & News

Nearby

Air Quality

  Air Quality AQ Index Pollutant
Not available.

Snow Depth

Station Depth Elevation

Earthquake Activity

City Distance Mag. Time & Date
Minimum magnitude displayed is 2.5.

Coastal Water Temperatures

Place Temperature

Stations

Nearby Weather Stations

Station Location Temp. Windchill Dew Point Humidity Wind Precip. Elev Updated Type